sensor_id;sensor_type;location;lat;lon;timestamp;P1;durP1;ratioP1;P2;durP2;ratioP2
37355;SDS011;48747;50.250;18.848;2024-02-23T00:00:12;7.12;;;3.87;;
37355;SDS011;48747;50.250;18.848;2024-02-23T00:02:15;7.62;;;4.10;;
37355;SDS011;48747;50.250;18.848;2024-02-23T00:04:18;6.80;;;3.80;;
37355;SDS011;48747;50.250;18.848;2024-02-23T00:06:21;6.72;;;3.98;;
37355;SDS011;48747;50.250;18.848;2024-02-23T00:08:29;7.12;;;3.95;;
37355;SDS011;48747;50.250;18.848;2024-02-23T00:10:32;7.72;;;4.17;;
37355;SDS011;48747;50.250;18.848;2024-02-23T00:12:35;8.35;;;4.03;;
37355;SDS011;48747;50.250;18.848;2024-02-23T00:14:38;7.55;;;4.22;;
37355;SDS011;48747;50.250;18.848;2024-02-23T00:16:41;8.10;;;3.83;;
37355;SDS011;48747;50.250;18.848;2024-02-23T00:18:44;6.92;;;4.00;;
37355;SDS011;48747;50.250;18.848;2024-02-23T00:20:47;8.93;;;4.28;;
37355;SDS011;48747;50.250;18.848;2024-02-23T00:22:50;6.65;;;4.15;;
37355;SDS011;48747;50.250;18.848;2024-02-23T00:24:53;5.62;;;3.60;;
37355;SDS011;48747;50.250;18.848;2024-02-23T00:26:56;7.62;;;4.22;;
37355;SDS011;48747;50.250;18.848;2024-02-23T00:28:59;6.05;;;3.67;;
37355;SDS011;48747;50.250;18.848;2024-02-23T00:31:02;6.08;;;3.65;;
37355;SDS011;48747;50.250;18.848;2024-02-23T00:33:05;5.47;;;3.58;;
37355;SDS011;48747;50.250;18.848;2024-02-23T00:35:08;5.97;;;3.98;;
37355;SDS011;48747;50.250;18.848;2024-02-23T00:37:11;7.90;;;3.80;;
37355;SDS011;48747;50.250;18.848;2024-02-23T00:39:14;7.30;;;3.75;;
37355;SDS011;48747;50.250;18.848;2024-02-23T00:41:17;5.12;;;3.55;;
37355;SDS011;48747;50.250;18.848;2024-02-23T00:43:20;5.53;;;3.70;;
37355;SDS011;48747;50.250;18.848;2024-02-23T00:45:23;6.80;;;3.98;;
37355;SDS011;48747;50.250;18.848;2024-02-23T00:47:27;5.33;;;3.35;;
37355;SDS011;48747;50.250;18.848;2024-02-23T00:49:30;6.72;;;3.65;;
37355;SDS011;48747;50.250;18.848;2024-02-23T00:51:33;6.35;;;3.80;;
37355;SDS011;48747;50.250;18.848;2024-02-23T00:53:36;5.67;;;3.80;;
37355;SDS011;48747;50.250;18.848;2024-02-23T00:55:39;5.53;;;3.37;;
37355;SDS011;48747;50.250;18.848;2024-02-23T00:57:42;5.50;;;3.22;;
37355;SDS011;48747;50.250;18.848;2024-02-23T00:59:46;4.72;;;3.35;;
37355;SDS011;48747;50.250;18.848;2024-02-23T01:01:49;7.30;;;4.03;;
37355;SDS011;48747;50.250;18.848;2024-02-23T01:03:52;4.85;;;3.27;;
37355;SDS011;48747;50.250;18.848;2024-02-23T01:05:55;6.20;;;3.60;;
37355;SDS011;48747;50.250;18.848;2024-02-23T01:07:58;6.05;;;3.72;;
37355;SDS011;48747;50.250;18.848;2024-02-23T01:10:01;6.90;;;3.67;;
37355;SDS011;48747;50.250;18.848;2024-02-23T01:12:05;9.18;;;4.20;;
37355;SDS011;48747;50.250;18.848;2024-02-23T01:14:08;6.30;;;3.95;;
37355;SDS011;48747;50.250;18.848;2024-02-23T01:16:11;5.78;;;3.72;;
37355;SDS011;48747;50.250;18.848;2024-02-23T01:18:14;7.05;;;3.77;;
37355;SDS011;48747;50.250;18.848;2024-02-23T01:20:17;5.62;;;3.40;;
37355;SDS011;48747;50.250;18.848;2024-02-23T01:22:20;5.15;;;3.40;;
37355;SDS011;48747;50.250;18.848;2024-02-23T01:24:23;6.92;;;3.72;;
37355;SDS011;48747;50.250;18.848;2024-02-23T01:26:28;5.97;;;3.70;;
37355;SDS011;48747;50.250;18.848;2024-02-23T01:28:31;8.28;;;3.90;;
37355;SDS011;48747;50.250;18.848;2024-02-23T01:30:34;6.97;;;3.72;;
37355;SDS011;48747;50.250;18.848;2024-02-23T01:32:37;6.92;;;4.30;;
37355;SDS011;48747;50.250;18.848;2024-02-23T01:34:40;7.42;;;4.30;;
37355;SDS011;48747;50.250;18.848;2024-02-23T01:36:43;8.73;;;4.33;;
37355;SDS011;48747;50.250;18.848;2024-02-23T01:38:47;8.73;;;3.80;;
37355;SDS011;48747;50.250;18.848;2024-02-23T01:40:50;6.08;;;3.35;;
37355;SDS011;48747;50.250;18.848;2024-02-23T01:43:02;7.20;;;3.08;;
37355;SDS011;48747;50.250;18.848;2024-02-23T01:45:06;6.97;;;3.60;;
37355;SDS011;48747;50.250;18.848;2024-02-23T01:47:10;4.60;;;2.90;;
37355;SDS011;48747;50.250;18.848;2024-02-23T01:49:13;5.08;;;2.83;;
37355;SDS011;48747;50.250;18.848;2024-02-23T01:51:16;5.28;;;3.17;;
37355;SDS011;48747;50.250;18.848;2024-02-23T01:53:19;5.33;;;2.90;;
37355;SDS011;48747;50.250;18.848;2024-02-23T01:55:22;5.00;;;2.65;;
37355;SDS011;48747;50.250;18.848;2024-02-23T01:57:26;4.33;;;2.65;;
37355;SDS011;48747;50.250;18.848;2024-02-23T01:59:29;4.15;;;2.50;;
37355;SDS011;48747;50.250;18.848;2024-02-23T02:01:32;5.42;;;3.12;;
37355;SDS011;48747;50.250;18.848;2024-02-23T02:03:36;4.47;;;2.83;;
37355;SDS011;48747;50.250;18.848;2024-02-23T02:05:42;4.72;;;2.95;;
37355;SDS011;48747;50.250;18.848;2024-02-23T02:07:46;6.08;;;2.90;;
37355;SDS011;48747;50.250;18.848;2024-02-23T02:09:53;6.92;;;3.12;;
37355;SDS011;48747;50.250;18.848;2024-02-23T02:11:56;4.85;;;2.80;;
37355;SDS011;48747;50.250;18.848;2024-02-23T02:13:59;3.90;;;2.67;;
37355;SDS011;48747;50.250;18.848;2024-02-23T02:16:02;4.45;;;2.52;;
37355;SDS011;48747;50.250;18.848;2024-02-23T02:18:06;6.00;;;2.83;;
37355;SDS011;48747;50.250;18.848;2024-02-23T02:20:14;4.62;;;2.37;;
37355;SDS011;48747;50.250;18.848;2024-02-23T02:22:14;4.90;;;2.70;;
37355;SDS011;48747;50.250;18.848;2024-02-23T02:24:17;5.60;;;2.52;;
37355;SDS011;48747;50.250;18.848;2024-02-23T02:26:20;3.87;;;2.27;;
37355;SDS011;48747;50.250;18.848;2024-02-23T02:28:23;3.72;;;2.20;;
37355;SDS011;48747;50.250;18.848;2024-02-23T02:30:27;3.60;;;2.30;;
37355;SDS011;48747;50.250;18.848;2024-02-23T02:32:30;5.87;;;2.40;;
37355;SDS011;48747;50.250;18.848;2024-02-23T02:34:33;3.80;;;2.30;;
37355;SDS011;48747;50.250;18.848;2024-02-23T02:36:36;3.05;;;2.40;;
37355;SDS011;48747;50.250;18.848;2024-02-23T02:38:39;3.58;;;2.35;;
37355;SDS011;48747;50.250;18.848;2024-02-23T02:40:42;4.20;;;2.80;;
37355;SDS011;48747;50.250;18.848;2024-02-23T02:42:45;5.47;;;2.70;;
37355;SDS011;48747;50.250;18.848;2024-02-23T02:44:48;7.20;;;2.92;;
37355;SDS011;48747;50.250;18.848;2024-02-23T02:46:51;6.90;;;2.72;;
37355;SDS011;48747;50.250;18.848;2024-02-23T02:48:54;4.33;;;2.65;;
37355;SDS011;48747;50.250;18.848;2024-02-23T02:50:57;5.47;;;2.95;;
37355;SDS011;48747;50.250;18.848;2024-02-23T02:53:00;4.50;;;2.85;;
37355;SDS011;48747;50.250;18.848;2024-02-23T02:55:03;5.72;;;3.20;;
37355;SDS011;48747;50.250;18.848;2024-02-23T02:57:06;5.20;;;3.05;;
37355;SDS011;48747;50.250;18.848;2024-02-23T02:59:09;6.47;;;3.15;;
37355;SDS011;48747;50.250;18.848;2024-02-23T03:01:13;5.08;;;2.90;;
37355;SDS011;48747;50.250;18.848;2024-02-23T03:03:16;4.87;;;2.65;;
37355;SDS011;48747;50.250;18.848;2024-02-23T03:05:19;5.25;;;2.90;;
37355;SDS011;48747;50.250;18.848;2024-02-23T03:07:22;5.53;;;2.92;;
37355;SDS011;48747;50.250;18.848;2024-02-23T03:09:25;4.37;;;3.00;;
37355;SDS011;48747;50.250;18.848;2024-02-23T03:11:28;7.53;;;3.47;;
37355;SDS011;48747;50.250;18.848;2024-02-23T03:13:31;5.35;;;3.08;;
37355;SDS011;48747;50.250;18.848;2024-02-23T03:15:34;5.85;;;3.40;;
37355;SDS011;48747;50.250;18.848;2024-02-23T03:17:37;6.17;;;2.92;;
37355;SDS011;48747;50.250;18.848;2024-02-23T03:19:40;5.25;;;2.75;;
37355;SDS011;48747;50.250;18.848;2024-02-23T03:21:43;5.03;;;2.98;;
37355;SDS011;48747;50.250;18.848;2024-02-23T03:23:46;4.72;;;2.85;;
37355;SDS011;48747;50.250;18.848;2024-02-23T03:25:49;7.47;;;2.95;;
37355;SDS011;48747;50.250;18.848;2024-02-23T03:27:52;5.37;;;3.30;;
37355;SDS011;48747;50.250;18.848;2024-02-23T03:29:55;5.55;;;3.70;;
37355;SDS011;48747;50.250;18.848;2024-02-23T03:31:58;6.28;;;3.60;;
37355;SDS011;48747;50.250;18.848;2024-02-23T03:34:02;7.20;;;4.22;;
37355;SDS011;48747;50.250;18.848;2024-02-23T03:36:05;6.78;;;5.10;;
37355;SDS011;48747;50.250;18.848;2024-02-23T03:38:09;5.90;;;4.28;;
37355;SDS011;48747;50.250;18.848;2024-02-23T03:40:12;6.15;;;3.95;;
37355;SDS011;48747;50.250;18.848;2024-02-23T03:42:15;7.55;;;4.55;;
37355;SDS011;48747;50.250;18.848;2024-02-23T03:44:18;7.25;;;4.47;;
37355;SDS011;48747;50.250;18.848;2024-02-23T03:46:21;6.25;;;3.92;;
37355;SDS011;48747;50.250;18.848;2024-02-23T03:48:24;6.08;;;4.08;;
37355;SDS011;48747;50.250;18.848;2024-02-23T03:50:27;8.05;;;4.33;;
37355;SDS011;48747;50.250;18.848;2024-02-23T03:52:30;6.10;;;3.90;;
37355;SDS011;48747;50.250;18.848;2024-02-23T03:54:33;7.03;;;4.10;;
37355;SDS011;48747;50.250;18.848;2024-02-23T03:56:40;6.85;;;3.72;;
37355;SDS011;48747;50.250;18.848;2024-02-23T03:58:43;7.05;;;4.10;;
37355;SDS011;48747;50.250;18.848;2024-02-23T04:00:47;8.08;;;4.10;;
37355;SDS011;48747;50.250;18.848;2024-02-23T04:02:50;6.47;;;3.70;;
37355;SDS011;48747;50.250;18.848;2024-02-23T04:04:53;5.75;;;3.72;;
37355;SDS011;48747;50.250;18.848;2024-02-23T04:06:56;6.80;;;3.87;;
37355;SDS011;48747;50.250;18.848;2024-02-23T04:08:59;10.53;;;3.67;;
37355;SDS011;48747;50.250;18.848;2024-02-23T04:11:02;6.87;;;3.90;;
37355;SDS011;48747;50.250;18.848;2024-02-23T04:13:06;7.25;;;3.80;;
37355;SDS011;48747;50.250;18.848;2024-02-23T04:15:09;9.65;;;4.20;;
37355;SDS011;48747;50.250;18.848;2024-02-23T04:17:12;7.20;;;4.30;;
37355;SDS011;48747;50.250;18.848;2024-02-23T04:19:16;11.20;;;6.28;;
37355;SDS011;48747;50.250;18.848;2024-02-23T04:21:20;11.00;;;7.08;;
37355;SDS011;48747;50.250;18.848;2024-02-23T04:23:23;12.00;;;7.83;;
37355;SDS011;48747;50.250;18.848;2024-02-23T04:25:26;12.60;;;7.65;;
37355;SDS011;48747;50.250;18.848;2024-02-23T04:27:29;12.78;;;7.58;;
37355;SDS011;48747;50.250;18.848;2024-02-23T04:29:33;12.15;;;7.90;;
37355;SDS011;48747;50.250;18.848;2024-02-23T04:31:37;14.03;;;8.28;;
37355;SDS011;48747;50.250;18.848;2024-02-23T04:33:40;12.65;;;7.70;;
37355;SDS011;48747;50.250;18.848;2024-02-23T04:35:43;13.22;;;7.37;;
37355;SDS011;48747;50.250;18.848;2024-02-23T04:37:46;9.73;;;7.20;;
37355;SDS011;48747;50.250;18.848;2024-02-23T04:39:50;10.00;;;7.03;;
37355;SDS011;48747;50.250;18.848;2024-02-23T04:41:53;11.12;;;7.08;;
37355;SDS011;48747;50.250;18.848;2024-02-23T04:43:56;16.00;;;9.35;;
37355;SDS011;48747;50.250;18.848;2024-02-23T04:46:01;17.52;;;10.35;;
37355;SDS011;48747;50.250;18.848;2024-02-23T04:48:04;15.35;;;8.83;;
37355;SDS011;48747;50.250;18.848;2024-02-23T04:50:07;14.38;;;8.43;;
37355;SDS011;48747;50.250;18.848;2024-02-23T04:52:11;11.60;;;7.17;;
37355;SDS011;48747;50.250;18.848;2024-02-23T04:54:14;13.08;;;7.78;;
37355;SDS011;48747;50.250;18.848;2024-02-23T04:56:17;11.90;;;7.30;;
37355;SDS011;48747;50.250;18.848;2024-02-23T04:58:20;14.33;;;8.70;;
37355;SDS011;48747;50.250;18.848;2024-02-23T05:00:23;12.00;;;8.48;;
37355;SDS011;48747;50.250;18.848;2024-02-23T05:02:28;15.72;;;9.63;;
37355;SDS011;48747;50.250;18.848;2024-02-23T05:04:32;12.73;;;9.20;;
37355;SDS011;48747;50.250;18.848;2024-02-23T05:06:35;12.30;;;9.28;;
37355;SDS011;48747;50.250;18.848;2024-02-23T05:08:38;11.75;;;8.18;;
37355;SDS011;48747;50.250;18.848;2024-02-23T05:10:42;15.23;;;8.50;;
37355;SDS011;48747;50.250;18.848;2024-02-23T05:12:45;12.63;;;7.75;;
37355;SDS011;48747;50.250;18.848;2024-02-23T05:14:48;13.55;;;8.30;;
37355;SDS011;48747;50.250;18.848;2024-02-23T05:16:51;11.10;;;8.15;;
37355;SDS011;48747;50.250;18.848;2024-02-23T05:18:54;13.70;;;8.25;;
37355;SDS011;48747;50.250;18.848;2024-02-23T05:20:57;14.78;;;8.45;;
37355;SDS011;48747;50.250;18.848;2024-02-23T05:23:00;13.60;;;9.03;;
37355;SDS011;48747;50.250;18.848;2024-02-23T05:25:03;15.88;;;8.83;;
37355;SDS011;48747;50.250;18.848;2024-02-23T05:27:06;13.75;;;8.20;;
37355;SDS011;48747;50.250;18.848;2024-02-23T05:29:09;15.03;;;8.08;;
37355;SDS011;48747;50.250;18.848;2024-02-23T05:31:14;12.03;;;7.85;;
37355;SDS011;48747;50.250;18.848;2024-02-23T05:33:17;14.73;;;8.58;;
37355;SDS011;48747;50.250;18.848;2024-02-23T05:35:21;13.88;;;9.43;;
37355;SDS011;48747;50.250;18.848;2024-02-23T05:37:26;21.05;;;10.88;;
37355;SDS011;48747;50.250;18.848;2024-02-23T05:39:29;16.48;;;10.03;;
37355;SDS011;48747;50.250;18.848;2024-02-23T05:41:33;15.88;;;10.82;;
37355;SDS011;48747;50.250;18.848;2024-02-23T05:43:36;19.73;;;12.33;;
37355;SDS011;48747;50.250;18.848;2024-02-23T05:45:39;19.77;;;11.22;;
37355;SDS011;48747;50.250;18.848;2024-02-23T05:47:42;17.50;;;12.10;;
37355;SDS011;48747;50.250;18.848;2024-02-23T05:49:45;18.07;;;13.25;;
37355;SDS011;48747;50.250;18.848;2024-02-23T05:51:48;20.20;;;13.65;;
37355;SDS011;48747;50.250;18.848;2024-02-23T05:53:51;19.57;;;14.15;;
37355;SDS011;48747;50.250;18.848;2024-02-23T05:55:54;21.05;;;15.55;;
37355;SDS011;48747;50.250;18.848;2024-02-23T05:57:57;23.75;;;16.95;;
37355;SDS011;48747;50.250;18.848;2024-02-23T06:00:01;23.32;;;15.50;;
37355;SDS011;48747;50.250;18.848;2024-02-23T06:02:04;26.12;;;16.82;;
37355;SDS011;48747;50.250;18.848;2024-02-23T06:04:07;28.00;;;18.12;;
37355;SDS011;48747;50.250;18.848;2024-02-23T06:06:10;26.42;;;17.35;;
37355;SDS011;48747;50.250;18.848;2024-02-23T06:08:13;27.85;;;18.73;;
37355;SDS011;48747;50.250;18.848;2024-02-23T06:10:16;29.55;;;16.67;;
37355;SDS011;48747;50.250;18.848;2024-02-23T06:12:19;23.27;;;13.62;;
37355;SDS011;48747;50.250;18.848;2024-02-23T06:14:22;24.32;;;12.63;;
37355;SDS011;48747;50.250;18.848;2024-02-23T06:16:26;20.05;;;10.65;;
37355;SDS011;48747;50.250;18.848;2024-02-23T06:18:29;17.48;;;10.50;;
37355;SDS011;48747;50.250;18.848;2024-02-23T06:20:32;17.42;;;10.70;;
37355;SDS011;48747;50.250;18.848;2024-02-23T06:22:35;17.77;;;11.15;;
37355;SDS011;48747;50.250;18.848;2024-02-23T06:24:38;18.60;;;11.55;;
37355;SDS011;48747;50.250;18.848;2024-02-23T06:26:41;21.65;;;12.82;;
37355;SDS011;48747;50.250;18.848;2024-02-23T06:28:45;19.55;;;13.10;;
37355;SDS011;48747;50.250;18.848;2024-02-23T06:30:48;19.30;;;11.95;;
37355;SDS011;48747;50.250;18.848;2024-02-23T06:32:51;29.67;;;17.20;;
37355;SDS011;48747;50.250;18.848;2024-02-23T06:34:54;33.67;;;18.37;;
37355;SDS011;48747;50.250;18.848;2024-02-23T06:36:57;31.05;;;18.35;;
37355;SDS011;48747;50.250;18.848;2024-02-23T06:39:00;25.92;;;16.23;;
37355;SDS011;48747;50.250;18.848;2024-02-23T06:41:04;29.10;;;18.27;;
37355;SDS011;48747;50.250;18.848;2024-02-23T06:43:08;21.65;;;13.30;;
37355;SDS011;48747;50.250;18.848;2024-02-23T06:45:14;25.20;;;16.27;;
37355;SDS011;48747;50.250;18.848;2024-02-23T06:47:17;29.18;;;18.07;;
37355;SDS011;48747;50.250;18.848;2024-02-23T06:49:20;20.95;;;13.40;;
37355;SDS011;48747;50.250;18.848;2024-02-23T06:51:25;22.22;;;14.63;;
37355;SDS011;48747;50.250;18.848;2024-02-23T06:53:36;21.95;;;13.95;;
37355;SDS011;48747;50.250;18.848;2024-02-23T06:55:42;22.70;;;15.45;;
37355;SDS011;48747;50.250;18.848;2024-02-23T06:57:44;19.37;;;14.43;;
37355;SDS011;48747;50.250;18.848;2024-02-23T06:59:48;19.42;;;13.43;;
37355;SDS011;48747;50.250;18.848;2024-02-23T07:01:53;24.25;;;16.80;;
37355;SDS011;48747;50.250;18.848;2024-02-23T07:04:02;29.80;;;19.25;;
37355;SDS011;48747;50.250;18.848;2024-02-23T07:06:02;25.37;;;17.25;;
37355;SDS011;48747;50.250;18.848;2024-02-23T07:08:10;26.25;;;18.23;;
37355;SDS011;48747;50.250;18.848;2024-02-23T07:10:13;24.40;;;16.93;;
37355;SDS011;48747;50.250;18.848;2024-02-23T07:12:18;25.70;;;17.48;;
37355;SDS011;48747;50.250;18.848;2024-02-23T07:14:21;25.15;;;17.67;;
37355;SDS011;48747;50.250;18.848;2024-02-23T07:16:24;23.12;;;16.23;;
37355;SDS011;48747;50.250;18.848;2024-02-23T07:18:29;25.82;;;16.30;;
37355;SDS011;48747;50.250;18.848;2024-02-23T07:20:35;21.82;;;13.68;;
37355;SDS011;48747;50.250;18.848;2024-02-23T07:22:38;22.95;;;14.15;;
37355;SDS011;48747;50.250;18.848;2024-02-23T07:24:45;25.23;;;13.90;;
37355;SDS011;48747;50.250;18.848;2024-02-23T07:26:48;24.98;;;13.62;;
37355;SDS011;48747;50.250;18.848;2024-02-23T07:28:51;22.13;;;13.18;;
37355;SDS011;48747;50.250;18.848;2024-02-23T07:30:58;19.45;;;13.95;;
37355;SDS011;48747;50.250;18.848;2024-02-23T07:33:01;21.48;;;13.70;;
37355;SDS011;48747;50.250;18.848;2024-02-23T07:35:04;23.00;;;13.80;;
37355;SDS011;48747;50.250;18.848;2024-02-23T07:37:07;20.00;;;12.68;;
37355;SDS011;48747;50.250;18.848;2024-02-23T07:39:16;22.70;;;13.48;;
37355;SDS011;48747;50.250;18.848;2024-02-23T07:41:15;22.75;;;13.48;;
37355;SDS011;48747;50.250;18.848;2024-02-23T07:43:21;19.07;;;13.83;;
37355;SDS011;48747;50.250;18.848;2024-02-23T07:45:25;23.35;;;14.80;;
37355;SDS011;48747;50.250;18.848;2024-02-23T07:47:28;24.07;;;15.72;;
37355;SDS011;48747;50.250;18.848;2024-02-23T07:49:32;28.95;;;19.23;;
37355;SDS011;48747;50.250;18.848;2024-02-23T07:51:35;27.67;;;18.65;;
37355;SDS011;48747;50.250;18.848;2024-02-23T07:53:38;24.92;;;17.98;;
37355;SDS011;48747;50.250;18.848;2024-02-23T07:55:41;33.25;;;22.95;;
37355;SDS011;48747;50.250;18.848;2024-02-23T07:57:44;29.07;;;18.57;;
37355;SDS011;48747;50.250;18.848;2024-02-23T07:59:52;27.80;;;18.42;;
37355;SDS011;48747;50.250;18.848;2024-02-23T08:01:55;32.63;;;17.87;;
37355;SDS011;48747;50.250;18.848;2024-02-23T08:03:59;27.00;;;15.53;;
37355;SDS011;48747;50.250;18.848;2024-02-23T08:06:02;24.70;;;13.85;;
37355;SDS011;48747;50.250;18.848;2024-02-23T08:08:06;25.45;;;14.60;;
37355;SDS011;48747;50.250;18.848;2024-02-23T08:10:09;23.38;;;13.25;;
37355;SDS011;48747;50.250;18.848;2024-02-23T08:12:14;17.45;;;11.40;;
37355;SDS011;48747;50.250;18.848;2024-02-23T08:14:18;19.00;;;11.57;;
37355;SDS011;48747;50.250;18.848;2024-02-23T08:16:21;18.37;;;11.40;;
37355;SDS011;48747;50.250;18.848;2024-02-23T08:18:25;23.18;;;12.88;;
37355;SDS011;48747;50.250;18.848;2024-02-23T08:20:28;20.97;;;11.35;;
37355;SDS011;48747;50.250;18.848;2024-02-23T08:22:31;18.92;;;10.85;;
37355;SDS011;48747;50.250;18.848;2024-02-23T08:24:36;18.52;;;10.50;;
37355;SDS011;48747;50.250;18.848;2024-02-23T08:26:39;14.30;;;9.15;;
37355;SDS011;48747;50.250;18.848;2024-02-23T08:28:44;14.20;;;9.45;;
37355;SDS011;48747;50.250;18.848;2024-02-23T08:30:47;13.65;;;9.13;;
37355;SDS011;48747;50.250;18.848;2024-02-23T08:32:50;17.07;;;9.93;;
37355;SDS011;48747;50.250;18.848;2024-02-23T08:34:53;13.98;;;9.33;;
37355;SDS011;48747;50.250;18.848;2024-02-23T08:36:57;15.00;;;8.78;;
37355;SDS011;48747;50.250;18.848;2024-02-23T08:39:00;17.17;;;8.88;;
37355;SDS011;48747;50.250;18.848;2024-02-23T08:41:04;16.15;;;9.20;;
37355;SDS011;48747;50.250;18.848;2024-02-23T08:43:07;16.75;;;10.08;;
37355;SDS011;48747;50.250;18.848;2024-02-23T08:45:10;16.10;;;9.20;;
37355;SDS011;48747;50.250;18.848;2024-02-23T08:47:14;23.30;;;11.95;;
37355;SDS011;48747;50.250;18.848;2024-02-23T08:49:18;21.40;;;11.65;;
37355;SDS011;48747;50.250;18.848;2024-02-23T08:51:21;33.98;;;21.30;;
37355;SDS011;48747;50.250;18.848;2024-02-23T08:53:24;28.87;;;16.23;;
37355;SDS011;48747;50.250;18.848;2024-02-23T08:55:27;24.67;;;12.75;;
37355;SDS011;48747;50.250;18.848;2024-02-23T08:57:30;17.90;;;10.50;;
37355;SDS011;48747;50.250;18.848;2024-02-23T08:59:33;16.97;;;12.25;;
37355;SDS011;48747;50.250;18.848;2024-02-23T09:01:36;18.20;;;9.88;;
37355;SDS011;48747;50.250;18.848;2024-02-23T09:03:39;12.75;;;7.90;;
37355;SDS011;48747;50.250;18.848;2024-02-23T09:05:44;12.28;;;8.73;;
37355;SDS011;48747;50.250;18.848;2024-02-23T09:07:48;13.15;;;8.55;;
37355;SDS011;48747;50.250;18.848;2024-02-23T09:09:51;12.68;;;7.97;;
37355;SDS011;48747;50.250;18.848;2024-02-23T09:11:56;14.60;;;8.85;;
37355;SDS011;48747;50.250;18.848;2024-02-23T09:13:59;18.07;;;10.53;;
37355;SDS011;48747;50.250;18.848;2024-02-23T09:16:02;26.45;;;14.90;;
37355;SDS011;48747;50.250;18.848;2024-02-23T09:18:06;20.90;;;11.33;;
37355;SDS011;48747;50.250;18.848;2024-02-23T09:20:11;19.10;;;10.70;;
37355;SDS011;48747;50.250;18.848;2024-02-23T09:22:15;17.37;;;9.73;;
37355;SDS011;48747;50.250;18.848;2024-02-23T09:24:18;14.18;;;8.68;;
37355;SDS011;48747;50.250;18.848;2024-02-23T09:26:21;19.65;;;9.73;;
37355;SDS011;48747;50.250;18.848;2024-02-23T09:28:25;16.30;;;9.15;;
37355;SDS011;48747;50.250;18.848;2024-02-23T09:30:28;16.73;;;9.60;;
37355;SDS011;48747;50.250;18.848;2024-02-23T09:32:31;17.02;;;9.78;;
37355;SDS011;48747;50.250;18.848;2024-02-23T09:34:34;17.75;;;11.08;;
37355;SDS011;48747;50.250;18.848;2024-02-23T09:36:41;17.27;;;10.80;;
37355;SDS011;48747;50.250;18.848;2024-02-23T09:38:43;16.37;;;11.03;;
37355;SDS011;48747;50.250;18.848;2024-02-23T09:40:47;15.95;;;12.03;;
37355;SDS011;48747;50.250;18.848;2024-02-23T09:42:55;18.77;;;12.60;;
37355;SDS011;48747;50.250;18.848;2024-02-23T09:45:01;16.67;;;10.45;;
37355;SDS011;48747;50.250;18.848;2024-02-23T09:47:05;18.35;;;10.45;;
37355;SDS011;48747;50.250;18.848;2024-02-23T09:49:13;16.85;;;11.08;;
37355;SDS011;48747;50.250;18.848;2024-02-23T09:51:20;16.40;;;10.38;;
37355;SDS011;48747;50.250;18.848;2024-02-23T09:53:23;16.17;;;9.50;;
37355;SDS011;48747;50.250;18.848;2024-02-23T09:55:26;17.55;;;11.08;;
37355;SDS011;48747;50.250;18.848;2024-02-23T09:57:29;14.78;;;8.30;;
37355;SDS011;48747;50.250;18.848;2024-02-23T09:59:32;13.85;;;8.90;;
37355;SDS011;48747;50.250;18.848;2024-02-23T10:01:36;13.38;;;9.08;;
37355;SDS011;48747;50.250;18.848;2024-02-23T10:03:41;15.90;;;10.10;;
37355;SDS011;48747;50.250;18.848;2024-02-23T10:05:44;14.47;;;9.68;;
37355;SDS011;48747;50.250;18.848;2024-02-23T10:07:52;13.50;;;8.95;;
37355;SDS011;48747;50.250;18.848;2024-02-23T10:09:59;12.73;;;8.68;;
37355;SDS011;48747;50.250;18.848;2024-02-23T10:11:58;11.63;;;7.53;;
37355;SDS011;48747;50.250;18.848;2024-02-23T10:14:05;10.60;;;7.00;;
37355;SDS011;48747;50.250;18.848;2024-02-23T10:16:08;10.72;;;5.90;;
37355;SDS011;48747;50.250;18.848;2024-02-23T10:18:11;9.28;;;6.33;;
37355;SDS011;48747;50.250;18.848;2024-02-23T10:20:14;8.68;;;6.10;;
37355;SDS011;48747;50.250;18.848;2024-02-23T10:22:18;11.57;;;5.97;;
37355;SDS011;48747;50.250;18.848;2024-02-23T10:24:23;9.93;;;6.75;;
37355;SDS011;48747;50.250;18.848;2024-02-23T10:26:26;9.93;;;5.83;;
37355;SDS011;48747;50.250;18.848;2024-02-23T10:28:30;9.35;;;5.72;;
37355;SDS011;48747;50.250;18.848;2024-02-23T10:30:33;9.58;;;5.75;;
37355;SDS011;48747;50.250;18.848;2024-02-23T10:32:42;8.08;;;5.90;;
37355;SDS011;48747;50.250;18.848;2024-02-23T10:34:45;7.92;;;5.30;;
37355;SDS011;48747;50.250;18.848;2024-02-23T10:36:52;8.58;;;5.28;;
37355;SDS011;48747;50.250;18.848;2024-02-23T10:38:56;10.35;;;5.55;;
37355;SDS011;48747;50.250;18.848;2024-02-23T10:41:02;8.63;;;5.35;;
37355;SDS011;48747;50.250;18.848;2024-02-23T10:43:16;8.90;;;5.03;;
37355;SDS011;48747;50.250;18.848;2024-02-23T10:45:18;9.73;;;4.85;;
37355;SDS011;48747;50.250;18.848;2024-02-23T10:47:23;9.80;;;5.72;;
37355;SDS011;48747;50.250;18.848;2024-02-23T10:49:26;12.07;;;6.55;;
37355;SDS011;48747;50.250;18.848;2024-02-23T10:51:32;10.65;;;5.80;;
37355;SDS011;48747;50.250;18.848;2024-02-23T10:53:39;10.15;;;5.08;;
37355;SDS011;48747;50.250;18.848;2024-02-23T10:55:42;15.00;;;7.83;;
37355;SDS011;48747;50.250;18.848;2024-02-23T10:57:48;14.18;;;7.33;;
37355;SDS011;48747;50.250;18.848;2024-02-23T10:59:52;15.58;;;7.62;;
37355;SDS011;48747;50.250;18.848;2024-02-23T11:01:55;11.38;;;6.55;;
37355;SDS011;48747;50.250;18.848;2024-02-23T11:04:01;16.75;;;8.13;;
37355;SDS011;48747;50.250;18.848;2024-02-23T11:06:07;11.35;;;6.12;;
37355;SDS011;48747;50.250;18.848;2024-02-23T11:08:10;9.40;;;5.35;;
37355;SDS011;48747;50.250;18.848;2024-02-23T11:10:16;10.90;;;5.75;;
37355;SDS011;48747;50.250;18.848;2024-02-23T11:12:24;12.33;;;6.42;;
37355;SDS011;48747;50.250;18.848;2024-02-23T11:14:31;11.57;;;7.03;;
37355;SDS011;48747;50.250;18.848;2024-02-23T11:16:38;13.40;;;6.75;;
37355;SDS011;48747;50.250;18.848;2024-02-23T11:18:42;12.18;;;6.70;;
37355;SDS011;48747;50.250;18.848;2024-02-23T11:20:53;11.12;;;6.78;;
37355;SDS011;48747;50.250;18.848;2024-02-23T11:23:02;16.02;;;8.73;;
37355;SDS011;48747;50.250;18.848;2024-02-23T11:25:08;17.95;;;9.93;;
37355;SDS011;48747;50.250;18.848;2024-02-23T11:27:15;18.50;;;10.28;;
37355;SDS011;48747;50.250;18.848;2024-02-23T11:29:19;17.02;;;9.48;;
37355;SDS011;48747;50.250;18.848;2024-02-23T11:31:22;15.98;;;9.80;;
37355;SDS011;48747;50.250;18.848;2024-02-23T11:33:27;19.73;;;10.25;;
37355;SDS011;48747;50.250;18.848;2024-02-23T11:35:45;12.95;;;7.78;;
37355;SDS011;48747;50.250;18.848;2024-02-23T11:37:48;12.28;;;7.67;;
37355;SDS011;48747;50.250;18.848;2024-02-23T11:40:04;14.53;;;8.40;;
37355;SDS011;48747;50.250;18.848;2024-02-23T11:42:13;23.55;;;11.73;;
37355;SDS011;48747;50.250;18.848;2024-02-23T11:44:17;25.00;;;13.53;;
37355;SDS011;48747;50.250;18.848;2024-02-23T11:46:21;26.23;;;14.73;;
37355;SDS011;48747;50.250;18.848;2024-02-23T11:48:25;18.20;;;11.12;;
37355;SDS011;48747;50.250;18.848;2024-02-23T11:50:28;19.35;;;10.93;;
37355;SDS011;48747;50.250;18.848;2024-02-23T11:52:34;21.25;;;12.20;;
37355;SDS011;48747;50.250;18.848;2024-02-23T11:54:38;17.82;;;12.15;;
37355;SDS011;48747;50.250;18.848;2024-02-23T11:56:43;35.52;;;19.45;;
37355;SDS011;48747;50.250;18.848;2024-02-23T11:58:50;21.95;;;13.30;;
37355;SDS011;48747;50.250;18.848;2024-02-23T12:00:54;22.37;;;13.70;;
37355;SDS011;48747;50.250;18.848;2024-02-23T12:03:00;22.35;;;13.20;;
37355;SDS011;48747;50.250;18.848;2024-02-23T12:05:04;22.70;;;13.15;;